Penn Valley, CA

8:57 PM PDT on September 01, 2014 (GMT -0700)
Yuba County | Change Station
CLOSE
Current Station
Airport
Location: Marysville,
Elevation: 59 ft
Nearby Weather Stations

Elev 59 ft 39.10 °N, 121.57 °W | Updated 4 minutes ago

Clear
Clear
82 °F
Feels Like 82 °F
N
7
Wind Variable Wind from SSE

Today
High -- | Low -- °F
--% Chance of Precip.
Yesterday
High -- | Low -- °F
Precip. -- in
6:33 AM 7:35 PM
Waxing Crescent, 47% visible
Pressure 29.71 in
Visibility 10.0 miles
Clouds Clear
Dew Point 51 °F
Humidity 34%
Rainfall 0.00 in
Snow Depth Not available.
UV 0 out of 12
Pollen 9.40 out of 12
Air Quality Not available.
Flu Activity Not available.
METAR KMYV 020353Z AUTO 16006KT 10SM CLR 28/11 A2970 RMK AO2 SLP059 T02780106

More Conditions Fewer Conditions

Pressure 29.71 in
Visibility 10.0 miles
Clouds Clear
Dew Point 51 °F
Humidity 34%
Rainfall 0.00 in
Snow Depth Not available.
UV 0 out of 12
Pollen 9.40 out of 12
Air Quality Not available.
Flu Activity Not available.
METAR KMYV 020353Z AUTO 16006KT 10SM CLR 28/11 A2970 RMK AO2 SLP059 T02780106

More Conditions Fewer Conditions

10-Day Weather Forecast

Almanac

Astronomy

Sep. 01, 2014 Rise Set
Actual Time 6:33 AM PDT 7:35 PM PDT
Civil Twilight 6:06 AM PDT 8:02 PM PDT
Nautical Twilight 5:33 AM PDT 8:35 PM PDT
Astronomical Twilight 4:59 AM PDT 9:09 PM PDT
Moon 1:21 PM PDT (9/1) 11:43 PM PDT (9/1)
Length of Visible Light 13h 56m
Length of Day
13h 01m
Tomorrow will be 2m 28s shorter.
Waxing Crescent, 47% of the Moon is Illuminated
Today
Waxing Crescent
Sep 2
First Quarter
Sep 8
Full
Sep 15
Last Quarter
Sep 24
New

Today's Extremes

State Highs State Lows

Community

WunderPhotos

Upload Photos

1,749,557 photos uploaded!

WunderBlogs® & News

Nearby

Air Quality

  Air Quality AQ Index Pollutant
Yesterday Good
OZONE
Monday Moderate
OZONE
Tuesday Moderate
OZONE
Wednesday Moderate
OZONE

Snow Depth

Station Depth Elevation
CSS Lab 1 in 6900 ft
Echo Peak 0 in 7800 ft
Adin Mountain 1 in 6200 ft
Cedar Pass 0 in 7100 ft

Earthquake Activity

City Distance Mag. Time & Date
Yountville, California 87 miles 2.6 1:15 PM PDT
2014-09-01
Green Valley, California 84 miles 2.5 6:37 AM PDT
2014-08-31
Napa, California 91 miles 3.2 1:56 AM PDT
2014-08-31
Minimum magnitude displayed is 2.5.

Coastal Water Temperatures

Place Temperature
No Stations Reporting

Nearby Weather Stations